Time;durP1;ratioP1;P1;durP2;ratioP2;P2;SDS_P1;SDS_P2;PMS_P1;PMS_P2;Temp;Humidity;BMP_temperature;BMP_pressure;BME280_temperature;BME280_humidity;BME280_pressure;Samples;Min_cycle;Max_cycle;Signal;HPM_P1;HPM_P2
2023/07/07 00:02:00;;;;;;;2.97;2.67;;;13.30;99.90;;;;;;4986972;28;20228;-86
2023/07/07 00:04:29;;;;;;;4.20;3.00;;;13.20;99.90;;;;;;4992450;28;20196;-85
2023/07/07 00:06:56;;;;;;;4.10;2.90;;;13.20;99.90;;;;;;4992689;28;20216;-86
2023/07/07 00:09:25;;;;;;;5.30;2.80;;;13.10;99.90;;;;;;4992254;28;20294;-86
2023/07/07 00:11:52;;;;;;;3.33;2.97;;;13.10;1.00;;;;;;4996822;28;20203;-86
2023/07/07 00:14:20;;;;;;;3.30;2.50;;;13.10;1.00;;;;;;4994135;28;20250;-86
2023/07/07 00:16:47;;;;;;;3.43;2.57;;;13.10;99.90;;;;;;4992539;28;20679;-87
2023/07/07 00:19:14;;;;;;;4.03;2.73;;;13.30;99.90;;;;;;4993684;28;20255;-86
2023/07/07 00:21:43;;;;;;;3.53;2.97;;;13.10;99.90;;;;;;4996361;28;20256;-86
2023/07/07 00:24:11;;;;;;;3.50;2.83;;;13.00;99.90;;;;;;4996525;28;20270;-86
2023/07/07 00:26:38;;;;;;;4.33;2.67;;;13.10;99.90;;;;;;4996173;28;20286;-87
2023/07/07 00:29:06;;;;;;;2.97;2.17;;;13.00;99.90;;;;;;4990292;28;20232;-86
2023/07/07 00:31:33;;;;;;;3.03;2.53;;;13.00;99.90;;;;;;4986200;28;20195;-87
2023/07/07 00:34:00;;;;;;;3.63;2.60;;;13.00;1.00;;;;;;5002358;28;20695;-87
2023/07/07 00:36:27;;;;;;;3.80;2.50;;;13.00;99.90;;;;;;5014710;28;20203;-87
2023/07/07 00:38:55;;;;;;;3.07;2.27;;;12.90;99.90;;;;;;5002201;28;20191;-88
2023/07/07 00:41:22;;;;;;;3.50;2.67;;;12.90;78.40;;;;;;5004008;28;20285;-86
2023/07/07 00:44:03;;;;;;;2.80;2.60;;;12.90;99.90;;;;;;4997156;28;20580;-87
2023/07/07 00:46:30;;;;;;;2.83;2.50;;;12.80;99.90;;;;;;4995848;28;20720;-86
2023/07/07 00:48:59;;;;;;;2.80;2.50;;;12.80;99.90;;;;;;4995738;28;20262;-87
2023/07/07 00:51:31;;;;;;;3.10;2.40;;;12.80;99.90;;;;;;4995542;28;20192;-85
2023/07/07 00:54:00;;;;;;;2.70;2.33;;;12.80;99.90;;;;;;4995448;28;20254;-87
2023/07/07 00:56:35;;;;;;;3.00;2.70;;;12.80;99.90;;;;;;4995128;28;20216;-88
2023/07/07 00:59:09;;;;;;;4.80;2.90;;;12.70;99.90;;;;;;4995845;28;20223;-86
2023/07/07 01:01:37;;;;;;;4.63;2.90;;;12.70;99.90;;;;;;5000240;28;20206;-85
2023/07/07 01:04:08;;;;;;;3.00;2.47;;;12.70;99.90;;;;;;5008878;28;20195;-87
2023/07/07 01:06:40;;;;;;;3.83;2.87;;;12.70;99.90;;;;;;4987484;28;20191;-87
2023/07/07 01:09:09;;;;;;;6.00;3.47;;;12.60;1.00;;;;;;4994183;28;20211;-87
2023/07/07 01:11:37;;;;;;;4.63;3.90;;;12.60;1.00;;;;;;4990864;28;20201;-87
2023/07/07 01:14:10;;;;;;;4.13;3.40;;;12.60;1.00;;;;;;4995683;28;20194;-85
2023/07/07 01:16:53;;;;;;;3.33;3.03;;;12.60;1.00;;;;;;4985793;28;20274;-86
2023/07/07 01:19:58;;;;;;;4.53;3.00;;;12.60;1.00;;;;;;5006155;28;20199;-86
2023/07/07 01:22:58;;;;;;;3.97;3.17;;;12.60;17.80;;;;;;4997547;28;20252;-86
2023/07/07 01:25:36;;;;;;;3.00;2.70;;;12.60;99.90;;;;;;4994081;28;20200;-86
2023/07/07 01:28:23;;;;;;;3.30;2.90;;;12.60;99.90;;;;;;4981244;28;20211;-87
2023/07/07 01:30:53;;;;;;;3.77;3.13;;;12.50;1.00;;;;;;4978533;28;20619;-87
2023/07/07 01:33:25;;;;;;;4.47;3.57;;;12.50;99.90;;;;;;4994517;28;20720;-85
2023/07/07 01:35:52;;;;;;;7.20;4.20;;;12.50;99.90;;;;;;4981907;28;20200;-88
2023/07/07 01:38:35;;;;;;;6.70;4.00;;;12.50;99.90;;;;;;4990874;28;20192;-88
2023/07/07 01:41:13;;;;;;;5.07;3.90;;;12.40;99.90;;;;;;4994838;28;20250;-85
2023/07/07 01:43:46;;;;;;;3.90;3.50;;;12.40;99.90;;;;;;4985571;28;20257;-86
2023/07/07 01:46:23;;;;;;;3.83;3.33;;;12.40;99.90;;;;;;4995047;28;20202;-86
2023/07/07 01:48:58;;;;;;;4.60;3.63;;;12.30;99.90;;;;;;4994509;28;20217;-87
2023/07/07 01:51:28;;;;;;;5.27;3.77;;;12.30;99.90;;;;;;4994703;28;20252;-85
2023/07/07 01:53:56;;;;;;;6.20;3.50;;;12.30;99.90;;;;;;4994330;28;20656;-86
2023/07/07 01:56:28;;;;;;;3.90;3.50;;;12.30;99.90;;;;;;4998043;28;20229;-86
2023/07/07 01:58:55;;;;;;;6.00;3.80;;;12.30;99.90;;;;;;5007976;28;20198;-87
2023/07/07 02:01:24;;;;;;;5.97;3.60;;;12.30;1.00;;;;;;5007845;28;20227;-86
2023/07/07 02:03:51;;;;;;;4.87;3.93;;;12.30;99.90;;;;;;5009925;28;20745;-86
2023/07/07 02:06:18;;;;;;;7.90;3.83;;;12.30;1.00;;;;;;4994260;28;20325;-87
2023/07/07 02:08:45;;;;;;;10.07;4.00;;;12.30;1.00;;;;;;4987593;28;20219;-87
2023/07/07 02:11:12;;;;;;;7.90;3.67;;;12.30;1.00;;;;;;4994591;28;20205;-87
2023/07/07 02:13:39;;;;;;;4.13;3.53;;;12.30;1.00;;;;;;5003266;28;20574;-88
2023/07/07 02:16:08;;;;;;;5.07;3.63;;;12.30;1.00;;;;;;5006635;28;20199;-86
2023/07/07 02:18:37;;;;;;;4.97;4.47;;;12.20;1.00;;;;;;4993997;28;20635;-86
2023/07/07 02:21:04;;;;;;;6.80;4.53;;;12.20;1.00;;;;;;4994537;28;20209;-86
2023/07/07 02:23:31;;;;;;;4.60;4.20;;;12.20;1.00;;;;;;4990437;28;20248;-87
2023/07/07 02:25:58;;;;;;;6.20;4.00;;;12.20;1.00;;;;;;4993921;28;20202;-86
2023/07/07 02:28:25;;;;;;;7.53;3.70;;;12.20;1.00;;;;;;4993874;28;20216;-86
2023/07/07 02:30:55;;;;;;;4.77;3.90;;;12.10;1.00;;;;;;4993773;28;20197;-86
2023/07/07 02:33:31;;;;;;;4.47;3.97;;;12.10;1.00;;;;;;4993878;28;20248;-87
2023/07/07 02:36:02;;;;;;;6.53;4.60;;;12.10;1.00;;;;;;4992679;28;20201;-86
2023/07/07 02:38:30;;;;;;;4.17;3.77;;;12.10;1.00;;;;;;4994243;28;20227;-85
2023/07/07 02:40:57;;;;;;;8.13;4.37;;;12.10;1.00;;;;;;4993856;28;20202;-85
2023/07/07 02:43:25;;;;;;;6.93;5.00;;;12.10;1.00;;;;;;5002381;28;20291;-86
2023/07/07 02:45:52;;;;;;;5.60;4.60;;;12.10;1.00;;;;;;4995926;28;20195;-87
2023/07/07 02:48:20;;;;;;;6.50;4.27;;;12.10;1.00;;;;;;4989495;28;20276;-86
2023/07/07 02:50:54;;;;;;;6.87;4.37;;;12.10;33.60;;;;;;4995943;28;20750;-85
2023/07/07 02:53:23;;;;;;;7.13;4.77;;;12.20;1.00;;;;;;4993671;28;20328;-87
2023/07/07 02:55:50;;;;;;;5.63;4.33;;;12.20;1.00;;;;;;4994382;28;20231;-86
2023/07/07 02:58:17;;;;;;;6.77;5.10;;;12.20;1.00;;;;;;4981218;28;20755;-85
2023/07/07 03:00:44;;;;;;;7.57;5.00;;;12.30;1.00;;;;;;4993457;28;20256;-86
2023/07/07 03:03:11;;;;;;;8.20;5.20;;;12.30;1.00;;;;;;5003285;28;20209;-88
2023/07/07 03:05:38;;;;;;;8.23;5.47;;;12.30;1.00;;;;;;4985045;28;20231;-87
2023/07/07 03:08:05;;;;;;;6.40;5.10;;;12.30;1.00;;;;;;4989834;28;20221;-86
2023/07/07 03:10:34;;;;;;;7.90;6.20;;;12.30;1.00;;;;;;5000953;28;20198;-86
2023/07/07 03:13:01;;;;;;;8.13;5.27;;;12.30;1.00;;;;;;4999634;28;20614;-86
2023/07/07 03:15:29;;;;;;;7.10;5.70;;;12.40;1.00;;;;;;4977398;28;20228;-86
2023/07/07 03:17:56;;;;;;;9.57;5.33;;;12.40;1.00;;;;;;4990357;28;20652;-87
2023/07/07 03:20:26;;;;;;;9.30;5.67;;;12.40;1.00;;;;;;4995643;28;20195;-86
2023/07/07 03:22:53;;;;;;;10.27;5.93;;;12.40;1.00;;;;;;4997457;28;20202;-86
2023/07/07 03:25:21;;;;;;;11.33;6.43;;;12.40;1.00;;;;;;4981367;28;20788;-87
2023/07/07 03:27:51;;;;;;;13.20;6.13;;;12.50;1.00;;;;;;4983855;28;20210;-86
2023/07/07 03:30:17;;;;;;;11.47;5.60;;;12.50;1.00;;;;;;4995680;28;20201;-86
2023/07/07 03:32:44;;;;;;;11.60;5.70;;;12.60;1.00;;;;;;4993462;28;20284;-86
2023/07/07 03:35:11;;;;;;;11.23;5.50;;;12.60;1.00;;;;;;4992851;28;20269;-87
2023/07/07 03:37:38;;;;;;;15.93;5.67;;;12.70;1.00;;;;;;5002952;28;20196;-88
2023/07/07 03:40:07;;;;;;;10.43;5.40;;;12.80;1.00;;;;;;4993264;28;20204;-86
2023/07/07 03:42:33;;;;;;;8.63;5.00;;;12.90;1.00;;;;;;5004305;28;20277;-88
2023/07/07 03:45:02;;;;;;;6.90;4.93;;;13.00;1.00;;;;;;4993516;28;20196;-87
2023/07/07 03:47:29;;;;;;;10.93;5.40;;;13.10;1.00;;;;;;5001564;28;20241;-88
2023/07/07 03:49:56;;;;;;;10.37;5.80;;;13.20;1.00;;;;;;5000200;28;20218;-87
2023/07/07 03:52:23;;;;;;;6.33;4.73;;;13.30;1.00;;;;;;5000947;28;20192;-86
2023/07/07 03:54:50;;;;;;;7.17;4.80;;;13.40;1.00;;;;;;4991128;28;20204;-86
2023/07/07 03:57:16;;;;;;;9.67;5.10;;;13.50;1.00;;;;;;4997334;28;20252;-88
2023/07/07 03:59:44;;;;;;;8.80;5.40;;;13.60;1.00;;;;;;4986330;28;20555;-86
2023/07/07 04:02:13;;;;;;;10.23;4.73;;;13.80;1.00;;;;;;4998420;28;20206;-88
2023/07/07 04:04:41;;;;;;;13.10;4.60;;;14.60;99.90;;;;;;4995071;28;20194;-88
2023/07/07 04:07:08;;;;;;;11.17;3.93;;;15.70;1.00;;;;;;4982629;28;20204;-87
2023/07/07 04:09:35;;;;;;;7.63;3.90;;;16.80;78.10;;;;;;4980668;28;20226;-87
2023/07/07 04:12:02;;;;;;;7.78;3.70;;;17.80;1.00;;;;;;4997360;28;20322;-88
2023/07/07 04:14:30;;;;;;;5.38;3.55;;;18.60;99.90;;;;;;5000519;28;20577;-88
2023/07/07 04:16:56;;;;;;;5.72;3.28;;;19.40;1.00;;;;;;5003831;28;20201;-88
2023/07/07 04:19:25;;;;;;;7.32;3.42;;;20.00;99.90;;;;;;4996431;28;20193;-87
2023/07/07 04:21:52;;;;;;;4.50;3.38;;;20.60;99.90;;;;;;4996634;28;20230;-89
2023/07/07 04:24:21;;;;;;;10.00;3.30;;;21.10;1.00;;;;;;4996841;28;20202;-87
2023/07/07 04:26:48;;;;;;;5.97;2.85;;;21.50;1.00;;;;;;4996207;28;20306;-88
2023/07/07 04:29:15;;;;;;;12.25;3.42;;;21.90;1.00;;;;;;4989498;28;20262;-87
2023/07/07 04:31:45;;;;;;;3.67;2.92;;;22.30;99.90;;;;;;4992157;28;20223;-88
2023/07/07 04:34:13;;;;;;;4.68;2.80;;;22.60;99.90;;;;;;4996392;28;20290;-88
2023/07/07 04:36:41;;;;;;;5.82;2.30;;;23.00;99.90;;;;;;4996661;28;20581;-89
2023/07/07 04:39:08;;;;;;;3.72;2.25;;;23.30;71.80;;;;;;4996744;28;20214;-88
2023/07/07 04:41:35;;;;;;;4.25;2.22;;;23.50;1.00;;;;;;4999618;28;20195;-87
2023/07/07 04:44:03;;;;;;;4.90;2.30;;;23.70;1.00;;;;;;4997178;28;20244;-88
2023/07/07 04:46:31;;;;;;;3.17;2.35;;;23.90;1.00;;;;;;5006920;28;20250;-89
2023/07/07 04:48:59;;;;;;;4.57;2.40;;;24.20;1.00;;;;;;4996481;28;20293;-89
2023/07/07 04:51:26;;;;;;;4.35;2.55;;;24.40;1.00;;;;;;4993468;28;20227;-87
2023/07/07 04:53:54;;;;;;;6.43;2.60;;;24.60;1.00;;;;;;4996354;28;20720;-88
2023/07/07 04:56:23;;;;;;;4.40;2.15;;;24.70;1.00;;;;;;4996194;28;20195;-89
2023/07/07 04:58:52;;;;;;;5.80;2.28;;;24.90;1.00;;;;;;4996244;28;20195;-89
2023/07/07 05:01:21;;;;;;;5.28;2.40;;;25.20;1.00;;;;;;4999085;28;20195;-89
2023/07/07 05:03:52;;;;;;;5.38;2.30;;;25.50;1.00;;;;;;4996365;28;20231;-88
2023/07/07 05:06:19;;;;;;;3.60;2.08;;;25.80;1.00;;;;;;4996594;28;20294;-90
2023/07/07 05:08:46;;;;;;;2.53;2.33;;;25.90;1.00;;;;;;5003330;28;20865;-89
2023/07/07 05:11:17;;;;;;;3.40;2.10;;;25.60;1.00;;;;;;4995307;28;20732;-89
2023/07/07 05:13:46;;;;;;;4.93;2.40;;;25.10;1.00;;;;;;4996040;28;20274;-88
2023/07/07 05:16:16;;;;;;;6.13;2.60;;;24.60;1.00;;;;;;4996191;28;20561;-89
2023/07/07 05:18:43;;;;;;;8.27;2.83;;;24.20;1.00;;;;;;4996188;28;20214;-89
2023/07/07 05:21:12;;;;;;;6.05;3.90;;;23.80;1.00;;;;;;4996331;28;20195;-88
2023/07/07 05:23:39;;;;;;;6.38;4.22;;;23.40;1.00;;;;;;4996350;28;20203;-89
2023/07/07 05:26:07;;;;;;;4.60;3.10;;;23.20;1.00;;;;;;4997785;28;20661;-89
2023/07/07 05:28:35;;;;;;;4.10;2.78;;;22.90;1.00;;;;;;5004666;28;20210;-88
2023/07/07 05:31:02;;;;;;;4.10;2.45;;;22.60;1.00;;;;;;5000304;28;20195;-90
2023/07/07 05:33:30;;;;;;;4.18;2.67;;;22.50;1.00;;;;;;4995564;28;20199;-88
2023/07/07 05:35:59;;;;;;;4.07;2.60;;;22.20;1.00;;;;;;4995848;28;20195;-89
2023/07/07 05:38:28;;;;;;;4.40;2.70;;;21.90;1.00;;;;;;4987439;28;20227;-89
2023/07/07 05:40:56;;;;;;;4.60;2.60;;;21.70;1.00;;;;;;5000855;28;20210;-91
2023/07/07 05:43:24;;;;;;;3.40;2.25;;;21.50;1.00;;;;;;4999098;28;20199;-89
2023/07/07 05:45:57;;;;;;;5.05;2.55;;;21.40;1.00;;;;;;4995415;28;20265;-88
2023/07/07 05:48:24;;;;;;;7.78;2.83;;;21.30;1.00;;;;;;5001263;28;20194;-88
2023/07/07 05:50:53;;;;;;;3.15;2.42;;;21.10;1.00;;;;;;5002139;28;20226;-88
2023/07/07 05:53:20;;;;;;;2.97;2.42;;;21.00;1.00;;;;;;4991450;28;20246;-89
2023/07/07 05:55:47;;;;;;;3.22;2.50;;;20.90;1.00;;;;;;5004211;28;20191;-88
2023/07/07 05:58:15;;;;;;;10.77;3.33;;;20.90;1.00;;;;;;4993808;28;20282;-89
2023/07/07 06:00:42;;;;;;;3.78;2.42;;;20.80;1.00;;;;;;4993882;28;20191;-89
2023/07/07 06:03:11;;;;;;;8.60;3.78;;;20.80;1.00;;;;;;4982106;28;20200;-88
2023/07/07 06:05:38;;;;;;;7.80;2.78;;;20.80;1.00;;;;;;4986336;28;20223;-88
2023/07/07 06:08:05;;;;;;;5.72;2.42;;;20.80;1.00;;;;;;4995649;28;20650;-89
2023/07/07 06:10:33;;;;;;;3.85;2.45;;;20.90;1.00;;;;;;4999469;28;20770;-88
2023/07/07 06:13:02;;;;;;;3.67;2.63;;;20.90;1.00;;;;;;4997005;28;20664;-88
2023/07/07 06:15:29;;;;;;;6.88;2.70;;;20.90;1.00;;;;;;4996057;28;20218;-90
2023/07/07 06:17:56;;;;;;;4.97;3.03;;;20.90;1.00;;;;;;4994044;28;20254;-89
2023/07/07 06:20:24;;;;;;;14.07;8.63;;;21.00;1.00;;;;;;4995882;28;20241;-88
2023/07/07 06:22:53;;;;;;;4.15;3.10;;;21.00;1.00;;;;;;4994979;28;20573;-89
2023/07/07 06:25:20;;;;;;;5.65;2.80;;;21.00;1.00;;;;;;4989702;28;20992;-89
2023/07/07 06:27:47;;;;;;;3.75;2.85;;;21.10;1.00;;;;;;4994623;28;20207;-89
2023/07/07 06:30:14;;;;;;;4.50;3.33;;;21.20;1.00;;;;;;5007324;28;20241;-90
2023/07/07 06:32:41;;;;;;;3.88;2.72;;;21.20;1.00;;;;;;4988096;28;20196;-89
2023/07/07 06:35:09;;;;;;;8.18;2.75;;;21.30;1.00;;;;;;4994550;28;20354;-89
2023/07/07 06:37:37;;;;;;;7.18;2.50;;;21.30;1.00;;;;;;4995416;28;20199;-88
2023/07/07 06:40:04;;;;;;;7.68;4.60;;;21.50;1.00;;;;;;4994931;28;20190;-88
2023/07/07 06:42:31;;;;;;;4.50;2.70;;;21.60;1.00;;;;;;4994159;28;20195;-89
2023/07/07 06:44:58;;;;;;;11.40;5.45;;;21.60;1.00;;;;;;5001102;28;20732;-89
2023/07/07 06:47:26;;;;;;;5.35;4.60;;;21.50;1.00;;;;;;4995198;28;20735;-90
2023/07/07 06:49:53;;;;;;;7.95;5.10;;;21.60;1.00;;;;;;5001804;28;20225;-89
2023/07/07 06:52:20;;;;;;;5.05;3.25;;;21.70;1.00;;;;;;5002376;28;20199;-89
2023/07/07 06:54:49;;;;;;;7.75;6.80;;;21.80;1.00;;;;;;5000458;28;20657;-88
2023/07/07 06:57:16;;;;;;;6.18;4.88;;;21.90;1.00;;;;;;4998744;28;20674;-88
2023/07/07 06:59:42;;;;;;;5.88;5.28;;;22.00;1.00;;;;;;4995228;28;20191;-89
2023/07/07 07:02:12;;;;;;;7.90;7.10;;;22.10;1.00;;;;;;4990341;28;20293;-87
2023/07/07 07:04:39;;;;;;;5.45;3.42;;;22.10;1.00;;;;;;4995083;28;20202;-88
2023/07/07 07:07:07;;;;;;;2.58;2.28;;;22.20;1.00;;;;;;4993874;28;20216;-88
2023/07/07 07:09:34;;;;;;;19.73;4.80;;;22.30;1.00;;;;;;4978435;28;20773;-88
2023/07/07 07:12:02;;;;;;;5.80;3.63;;;22.40;1.00;;;;;;4994737;28;20230;-89
2023/07/07 07:14:29;;;;;;;4.85;3.70;;;22.40;1.00;;;;;;4994191;28;20249;-88
2023/07/07 07:16:56;;;;;;;9.07;3.20;;;22.40;1.00;;;;;;4994359;28;20233;-89
2023/07/07 07:19:23;;;;;;;2.83;2.28;;;22.50;1.00;;;;;;4990972;28;20658;-90
2023/07/07 07:21:50;;;;;;;2.70;2.30;;;22.60;1.00;;;;;;4990472;28;20253;-89
2023/07/07 07:24:19;;;;;;;9.00;4.63;;;22.60;1.00;;;;;;4994142;28;20253;-89
2023/07/07 07:26:46;;;;;;;8.35;4.45;;;22.60;1.00;;;;;;5001799;28;20281;-90
2023/07/07 07:29:14;;;;;;;5.05;3.10;;;22.60;1.00;;;;;;5005144;28;20301;-89
2023/07/07 07:31:42;;;;;;;5.75;3.97;;;22.60;1.00;;;;;;4998023;28;20261;-90
2023/07/07 07:34:24;;;;;;;2.53;2.33;;;22.60;1.00;;;;;;4998028;28;20577;-92
2023/07/07 07:36:51;;;;;;;3.15;2.50;;;22.60;1.00;;;;;;4998646;28;20251;-89
2023/07/07 07:39:19;;;;;;;3.85;3.05;;;22.70;1.00;;;;;;4998180;28;20195;-90
2023/07/07 07:41:47;;;;;;;4.35;3.65;;;22.80;1.00;;;;;;5000711;28;20611;-90
2023/07/07 07:44:17;;;;;;;8.73;5.05;;;22.90;1.00;;;;;;5003415;28;20698;-89
2023/07/07 07:46:45;;;;;;;6.32;4.00;;;23.00;1.00;;;;;;4997519;28;20746;-90
2023/07/07 07:49:13;;;;;;;4.22;2.40;;;23.00;1.00;;;;;;5005016;28;20218;-90
2023/07/07 07:51:40;;;;;;;4.13;3.22;;;23.00;1.00;;;;;;5007161;28;20191;-90
2023/07/07 07:54:09;;;;;;;3.28;2.08;;;23.10;1.00;;;;;;5013919;28;20190;-90
2023/07/07 07:56:36;;;;;;;5.45;2.30;;;23.20;1.00;;;;;;5003977;28;20269;-90
2023/07/07 07:59:04;;;;;;;3.53;2.20;;;23.30;1.00;;;;;;5004753;28;20221;-91
2023/07/07 08:01:33;;;;;;;6.30;2.88;;;23.40;1.00;;;;;;5009366;28;20645;-89
2023/07/07 08:04:00;;;;;;;5.22;2.70;;;23.40;1.00;;;;;;4986008;28;20203;-90
2023/07/07 08:06:27;;;;;;;3.55;2.50;;;23.50;1.00;;;;;;5012612;28;20248;-91
2023/07/07 08:08:54;;;;;;;3.30;2.10;;;23.70;1.00;;;;;;4998039;28;20233;-90
2023/07/07 08:11:49;;;;;;;4.18;2.70;;;23.70;1.00;;;;;;5001646;28;20218;-89
2023/07/07 08:14:18;;;;;;;4.47;2.42;;;23.70;1.00;;;;;;5003468;28;20190;-91
2023/07/07 08:16:47;;;;;;;3.80;2.97;;;23.80;1.00;;;;;;4997490;28;20209;-91
2023/07/07 08:19:14;;;;;;;2.85;2.20;;;23.70;1.00;;;;;;5004025;28;20620;-88
2023/07/07 08:21:41;;;;;;;4.57;2.20;;;23.70;1.00;;;;;;4997659;28;20214;-92
2023/07/07 08:24:08;;;;;;;8.43;5.07;;;23.70;1.00;;;;;;5016727;28;20194;-90
2023/07/07 08:26:36;;;;;;;4.35;2.95;;;23.80;1.00;;;;;;5016890;28;20198;-89
2023/07/07 08:29:03;;;;;;;7.50;4.70;;;23.80;1.00;;;;;;4996854;28;20251;-91
2023/07/07 08:31:30;;;;;;;6.35;3.28;;;23.90;1.00;;;;;;5007743;28;20250;-91
2023/07/07 08:34:00;;;;;;;6.28;3.85;;;24.00;1.00;;;;;;4996175;28;20223;-90
2023/07/07 08:36:27;;;;;;;2.97;2.00;;;24.00;1.00;;;;;;4997035;28;20274;-90
2023/07/07 08:38:55;;;;;;;3.97;2.53;;;24.00;1.00;;;;;;4996085;28;20257;-89
2023/07/07 08:41:22;;;;;;;4.63;2.40;;;24.00;1.00;;;;;;4989529;28;20284;-89
2023/07/07 08:43:50;;;;;;;3.17;2.00;;;24.00;1.00;;;;;;4997090;28;20199;-90
2023/07/07 08:46:24;;;;;;;2.17;1.75;;;24.10;1.00;;;;;;4997171;28;20213;-90
2023/07/07 08:48:57;;;;;;;1.92;1.70;;;24.10;1.00;;;;;;4996200;28;20207;-90
2023/07/07 08:51:31;;;;;;;4.35;2.20;;;24.10;1.00;;;;;;4996765;28;20235;-90
2023/07/07 08:54:07;;;;;;;2.00;1.70;;;24.10;1.00;;;;;;4996602;28;20245;-90
2023/07/07 08:56:44;;;;;;;4.32;1.90;;;24.20;1.00;;;;;;4996713;28;20194;-91
2023/07/07 08:59:22;;;;;;;4.85;4.38;;;24.30;1.00;;;;;;4996467;28;20552;-90
2023/07/07 09:01:59;;;;;;;6.53;1.67;;;24.40;1.00;;;;;;4983645;28;20533;-89
2023/07/07 09:04:40;;;;;;;10.93;2.25;;;24.40;1.00;;;;;;4995944;28;20198;-91
2023/07/07 09:07:33;;;;;;;4.13;2.00;;;24.40;1.00;;;;;;5000714;28;20194;-89
2023/07/07 09:10:27;;;;;;;2.67;1.77;;;24.40;1.00;;;;;;5010729;28;20276;-91
2023/07/07 09:12:58;;;;;;;4.07;2.00;;;24.50;1.00;;;;;;5002783;28;20195;-90
2023/07/07 09:15:30;;;;;;;7.57;5.38;;;24.70;1.00;;;;;;4996538;28;20203;-91
2023/07/07 09:18:02;;;;;;;4.82;2.30;;;24.80;1.00;;;;;;4994148;28;20191;-90
2023/07/07 09:20:33;;;;;;;3.10;2.72;;;24.80;1.00;;;;;;4996335;28;20190;-91
2023/07/07 09:23:06;;;;;;;4.55;2.30;;;24.90;1.00;;;;;;4996679;28;20195;-90
2023/07/07 09:25:38;;;;;;;2.72;2.03;;;25.00;1.00;;;;;;4995731;28;20196;-89
2023/07/07 09:28:10;;;;;;;4.63;1.80;;;25.20;1.00;;;;;;4996693;28;20202;-90
2023/07/07 09:30:41;;;;;;;2.10;1.70;;;25.20;1.00;;;;;;4998383;28;20214;-90
2023/07/07 09:33:11;;;;;;;3.60;1.63;;;25.30;1.00;;;;;;5005801;28;20186;-90
2023/07/07 09:35:43;;;;;;;6.57;2.50;;;25.40;1.00;;;;;;5012992;28;20284;-90
2023/07/07 09:38:22;;;;;;;3.15;2.00;;;25.40;1.00;;;;;;4998203;28;20249;-91
2023/07/07 09:40:58;;;;;;;3.42;1.88;;;25.60;1.00;;;;;;5005721;28;20269;-90
2023/07/07 09:43:33;;;;;;;9.82;6.88;;;25.70;1.00;;;;;;5001217;28;20662;-91
2023/07/07 09:46:12;;;;;;;4.15;2.40;;;25.80;1.00;;;;;;4979207;28;20179;-90
2023/07/07 09:48:47;;;;;;;4.78;1.70;;;25.80;1.00;;;;;;4992115;28;20195;-89
2023/07/07 09:51:34;;;;;;;3.10;1.92;;;25.70;1.00;;;;;;4991402;28;20296;-90
2023/07/07 09:54:03;;;;;;;2.85;2.00;;;25.60;1.00;;;;;;4995482;28;20743;-88
2023/07/07 09:56:40;;;;;;;3.20;1.50;;;25.50;1.00;;;;;;4996019;28;20253;-91
2023/07/07 09:59:13;;;;;;;1.73;1.63;;;25.40;1.00;;;;;;5009681;28;20198;-89
2023/07/07 10:01:45;;;;;;;4.40;2.15;;;25.50;1.00;;;;;;5010709;28;20179;-89
2023/07/07 10:04:15;;;;;;;4.05;2.90;;;25.70;1.00;;;;;;4990260;28;20257;-90
2023/07/07 10:06:47;;;;;;;3.78;2.50;;;25.90;1.00;;;;;;4995828;28;20661;-90
2023/07/07 10:09:16;;;;;;;3.25;2.38;;;26.00;1.00;;;;;;5000283;28;20244;-90
2023/07/07 10:11:44;;;;;;;2.30;1.90;;;26.20;1.00;;;;;;5011869;28;20718;-90
2023/07/07 10:14:14;;;;;;;2.65;1.52;;;26.30;1.00;;;;;;5003632;28;20289;-89
2023/07/07 10:16:52;;;;;;;5.22;1.80;;;26.40;1.00;;;;;;4995097;28;20732;-90
2023/07/07 10:19:20;;;;;;;2.33;1.60;;;26.40;1.00;;;;;;4993520;28;20310;-90
2023/07/07 10:21:48;;;;;;;3.53;1.77;;;26.30;1.00;;;;;;4986219;28;20280;-89
2023/07/07 10:24:17;;;;;;;2.70;1.70;;;26.10;1.00;;;;;;4995850;28;20289;-90
2023/07/07 10:26:47;;;;;;;2.03;1.58;;;25.90;1.00;;;;;;4997787;28;20210;-90
2023/07/07 10:29:17;;;;;;;5.45;1.88;;;25.70;1.00;;;;;;4999951;28;20229;-90
2023/07/07 10:31:47;;;;;;;4.05;1.70;;;25.60;1.00;;;;;;5004024;28;20280;-87
2023/07/07 10:34:26;;;;;;;3.80;1.80;;;25.50;1.00;;;;;;5004153;28;20227;-89
2023/07/07 10:36:56;;;;;;;2.90;2.33;;;25.40;1.00;;;;;;4995020;28;20203;-89
2023/07/07 10:39:26;;;;;;;3.95;2.53;;;25.50;1.00;;;;;;4995164;28;20207;-90
2023/07/07 10:41:53;;;;;;;3.20;2.20;;;25.50;1.00;;;;;;5003281;28;20195;-89
2023/07/07 10:44:24;;;;;;;3.95;2.00;;;25.70;1.00;;;;;;4995029;28;20226;-91
2023/07/07 10:46:51;;;;;;;5.10;2.25;;;26.00;1.00;;;;;;4997890;28;20226;-89
2023/07/07 10:49:24;;;;;;;3.42;2.20;;;26.30;1.00;;;;;;5011255;28;20720;-91
2023/07/07 10:52:03;;;;;;;2.58;2.10;;;26.50;1.00;;;;;;4993202;28;20300;-90
2023/07/07 10:54:44;;;;;;;3.45;2.10;;;26.70;1.00;;;;;;4983124;28;20191;-89
2023/07/07 10:57:20;;;;;;;2.50;1.92;;;26.90;1.00;;;;;;4994391;28;20237;-90
2023/07/07 11:00:00;;;;;;;3.20;1.77;;;27.10;1.00;;;;;;4990646;28;20203;-89
2023/07/07 11:03:00;;;;;;;2.38;1.70;;;27.30;1.00;;;;;;4998228;28;20199;-90
2023/07/07 11:05:41;;;;;;;4.03;2.10;;;27.60;1.00;;;;;;4997047;28;20203;-91
2023/07/07 11:08:23;;;;;;;9.05;2.40;;;27.70;1.00;;;;;;4998982;28;20202;-90
2023/07/07 11:11:20;;;;;;;2.25;1.60;;;27.80;1.00;;;;;;4995861;28;20292;-90
2023/07/07 11:13:59;;;;;;;2.03;1.80;;;27.90;1.00;;;;;;4975644;28;20199;-90
2023/07/07 11:16:33;;;;;;;5.55;1.80;;;27.90;1.00;;;;;;4991085;28;20237;-89
2023/07/07 11:19:13;;;;;;;6.95;1.90;;;28.00;1.00;;;;;;4992463;28;20402;-90
2023/07/07 11:21:51;;;;;;;3.55;2.75;;;27.90;1.00;;;;;;4994258;28;20230;-92
2023/07/07 11:24:27;;;;;;;3.47;1.60;;;27.80;1.00;;;;;;4993815;28;20290;-90
2023/07/07 11:27:21;;;;;;;3.47;1.75;;;27.80;1.00;;;;;;4993170;28;20206;-91
2023/07/07 11:29:59;;;;;;;2.28;1.60;;;27.70;1.00;;;;;;4999112;28;20226;-89
2023/07/07 11:32:34;;;;;;;1.90;1.70;;;27.60;1.00;;;;;;4980116;28;20250;-91
2023/07/07 11:35:24;;;;;;;2.85;1.80;;;27.60;1.00;;;;;;4993105;28;20245;-89
2023/07/07 11:38:03;;;;;;;3.60;1.98;;;27.60;1.00;;;;;;4976419;28;20203;-88
2023/07/07 11:40:48;;;;;;;4.25;1.75;;;27.70;1.00;;;;;;4992614;28;20281;-90
2023/07/07 11:43:32;;;;;;;3.63;1.60;;;27.80;1.00;;;;;;4987703;28;20966;-89
2023/07/07 11:46:17;;;;;;;3.75;1.80;;;27.70;1.00;;;;;;4985661;28;20199;-90
2023/07/07 11:48:55;;;;;;;1.98;1.65;;;27.70;1.00;;;;;;5006296;28;20205;-90
2023/07/07 11:51:35;;;;;;;2.60;1.52;;;27.60;1.00;;;;;;4983134;28;20770;-89
2023/07/07 11:54:36;;;;;;;2.90;1.63;;;27.50;1.00;;;;;;4985977;28;20195;-90
2023/07/07 11:57:34;;;;;;;3.55;1.60;;;27.40;1.00;;;;;;5024333;28;20217;-93
2023/07/07 12:00:28;;;;;;;2.85;1.80;;;27.30;99.90;;;;;;5009393;28;20187;-91
2023/07/07 12:02:56;;;;;;;3.70;1.70;;;27.20;99.90;;;;;;4968332;28;20195;-89
2023/07/07 12:05:28;;;;;;;2.45;1.90;;;27.30;99.90;;;;;;4995734;28;20257;-88
2023/07/07 12:07:59;;;;;;;2.72;1.80;;;27.40;99.90;;;;;;4994408;28;20546;-90
2023/07/07 12:10:29;;;;;;;1.83;1.70;;;27.50;99.90;;;;;;4995382;28;20194;-88
2023/07/07 12:13:00;;;;;;;3.45;2.00;;;27.50;99.90;;;;;;4993354;28;20290;-88
2023/07/07 12:15:32;;;;;;;4.25;1.60;;;27.60;99.90;;;;;;4999243;28;20191;-88
2023/07/07 12:18:09;;;;;;;3.38;1.80;;;27.60;99.90;;;;;;5000720;28;20613;-89
2023/07/07 12:20:41;;;;;;;1.98;1.48;;;27.70;1.00;;;;;;4997072;28;20194;-90
2023/07/07 12:23:11;;;;;;;7.28;1.98;;;27.80;99.90;;;;;;4997149;28;20198;-90
2023/07/07 12:25:39;;;;;;;4.03;1.58;;;27.90;99.90;;;;;;5002461;28;20183;-90
2023/07/07 12:28:09;;;;;;;3.47;1.73;;;27.80;99.90;;;;;;4997305;28;20219;-88
2023/07/07 12:30:43;;;;;;;6.55;2.05;;;27.80;99.90;;;;;;5007940;28;20194;-89
2023/07/07 12:33:10;;;;;;;2.47;1.70;;;27.90;99.90;;;;;;5001915;28;20219;-90
2023/07/07 12:35:46;;;;;;;2.20;1.67;;;28.00;99.90;;;;;;5004713;28;20301;-89
2023/07/07 12:38:27;;;;;;;2.35;1.55;;;28.20;99.90;;;;;;5003244;28;20230;-90
2023/07/07 12:40:56;;;;;;;1.67;1.40;;;28.30;99.90;;;;;;4994495;28;20269;-90
2023/07/07 12:43:29;;;;;;;2.28;1.52;;;28.30;99.90;;;;;;4983608;28;20261;-89
2023/07/07 12:45:57;;;;;;;2.33;1.60;;;28.20;99.90;;;;;;5010698;28;20195;-88
2023/07/07 12:48:28;;;;;;;4.07;1.70;;;28.10;99.90;;;;;;5004571;28;20194;-92
2023/07/07 12:50:59;;;;;;;3.25;1.85;;;28.00;99.90;;;;;;4998114;28;20534;-91
2023/07/07 12:53:30;;;;;;;3.53;1.55;;;28.00;99.90;;;;;;5000793;28;20207;-94
2023/07/07 12:56:02;;;;;;;3.10;1.90;;;28.10;99.90;;;;;;5002464;28;20723;-91
2023/07/07 12:58:51;;;;;;;5.68;1.63;;;28.20;99.90;;;;;;5004782;28;20207;-92
2023/07/07 13:01:31;;;;;;;3.80;1.77;;;28.30;99.90;;;;;;4997465;28;20230;-92
2023/07/07 13:04:17;;;;;;;4.75;1.70;;;28.40;99.90;;;;;;5007485;28;20190;-92
2023/07/07 13:07:03;;;;;;;4.95;1.85;;;28.20;99.90;;;;;;4995291;28;20251;-91
2023/07/07 13:09:44;;;;;;;4.80;1.70;;;27.90;99.90;;;;;;4984381;28;20194;-93
2023/07/07 13:12:44;;;;;;;2.28;1.80;;;27.80;99.90;;;;;;4998419;28;20194;-91
2023/07/07 13:15:19;;;;;;;5.97;1.80;;;27.90;99.90;;;;;;5008961;28;20202;-93